sensor_id;sensor_type;location;lat;lon;timestamp;pressure;altitude;pressure_sealevel;temperature;humidity
14041;BME280;7095;51.388;6.196;2023-06-04T00:00:07;53880.84;;;-145.32;100.00
14041;BME280;7095;51.388;6.196;2023-06-04T00:02:35;53876.84;;;-145.32;100.00
14041;BME280;7095;51.388;6.196;2023-06-04T00:05:05;53896.75;;;-145.32;100.00
14041;BME280;7095;51.388;6.196;2023-06-04T00:07:33;53898.72;;;-145.32;100.00
14041;BME280;7095;51.388;6.196;2023-06-04T00:10:03;53904.69;;;-145.32;100.00
14041;BME280;7095;51.388;6.196;2023-06-04T00:12:32;53900.72;;;-145.32;100.00
14041;BME280;7095;51.388;6.196;2023-06-04T00:15:00;53896.75;;;-145.32;100.00
14041;BME280;7095;51.388;6.196;2023-06-04T00:17:31;53968.31;;;-145.32;100.00
14041;BME280;7095;51.388;6.196;2023-06-04T00:19:59;53962.34;;;-145.32;100.00
14041;BME280;7095;51.388;6.196;2023-06-04T00:22:28;53994.16;;;-145.32;100.00
14041;BME280;7095;51.388;6.196;2023-06-04T00:24:57;54012.06;;;-145.32;100.00
14041;BME280;7095;51.388;6.196;2023-06-04T00:27:25;53992.19;;;-145.32;100.00
14041;BME280;7095;51.388;6.196;2023-06-04T00:29:54;53988.19;;;-145.32;100.00
14041;BME280;7095;51.388;6.196;2023-06-04T00:32:23;54027.97;;;-145.32;100.00
14041;BME280;7095;51.388;6.196;2023-06-04T00:34:54;53964.34;;;-145.32;100.00
14041;BME280;7095;51.388;6.196;2023-06-04T00:37:25;54010.06;;;-145.32;100.00
14041;BME280;7095;51.388;6.196;2023-06-04T00:39:54;54029.97;;;-145.32;100.00
14041;BME280;7095;51.388;6.196;2023-06-04T00:42:23;54018.03;;;-145.32;100.00
14041;BME280;7095;51.388;6.196;2023-06-04T00:44:51;54004.09;;;-145.32;100.00
14041;BME280;7095;51.388;6.196;2023-06-04T00:47:20;54000.13;;;-145.32;100.00
14041;BME280;7095;51.388;6.196;2023-06-04T00:49:49;54016.03;;;-145.32;100.00
14041;BME280;7095;51.388;6.196;2023-06-04T00:52:19;54004.09;;;-145.32;100.00
14041;BME280;7095;51.388;6.196;2023-06-04T00:54:47;54059.78;;;-145.32;100.00
14041;BME280;7095;51.388;6.196;2023-06-04T00:57:16;54083.66;;;-145.32;100.00
14041;BME280;7095;51.388;6.196;2023-06-04T00:59:45;54107.50;;;-145.32;100.00
14041;BME280;7095;51.388;6.196;2023-06-04T01:02:17;54107.50;;;-145.32;100.00
14041;BME280;7095;51.388;6.196;2023-06-04T01:04:54;54099.56;;;-145.32;100.00
14041;BME280;7095;51.388;6.196;2023-06-04T01:07:27;54051.81;;;-145.32;100.00
14041;BME280;7095;51.388;6.196;2023-06-04T01:09:56;54069.72;;;-145.32;100.00
14041;BME280;7095;51.388;6.196;2023-06-04T01:12:24;54099.56;;;-145.32;100.00
14041;BME280;7095;51.388;6.196;2023-06-04T01:14:53;54079.66;;;-145.32;100.00
14041;BME280;7095;51.388;6.196;2023-06-04T01:17:25;54111.47;;;-145.32;100.00
14041;BME280;7095;51.388;6.196;2023-06-04T01:20:20;54119.44;;;-145.32;100.00
14041;BME280;7095;51.388;6.196;2023-06-04T01:23:02;54115.47;;;-145.32;100.00
14041;BME280;7095;51.388;6.196;2023-06-04T01:25:36;54087.63;;;-145.32;100.00
14041;BME280;7095;51.388;6.196;2023-06-04T01:28:07;54091.59;;;-145.32;100.00
14041;BME280;7095;51.388;6.196;2023-06-04T01:30:39;54075.69;;;-145.32;100.00
14041;BME280;7095;51.388;6.196;2023-06-04T01:33:10;54109.50;;;-145.32;100.00
14041;BME280;7095;51.388;6.196;2023-06-04T01:35:39;54087.63;;;-145.32;100.00
14041;BME280;7095;51.388;6.196;2023-06-04T01:38:09;54089.59;;;-145.32;100.00
14041;BME280;7095;51.388;6.196;2023-06-04T01:40:38;54113.47;;;-145.32;100.00
14041;BME280;7095;51.388;6.196;2023-06-04T01:43:08;54095.56;;;-145.32;100.00
14041;BME280;7095;51.388;6.196;2023-06-04T01:45:36;54123.41;;;-145.32;100.00
14041;BME280;7095;51.388;6.196;2023-06-04T01:48:06;54135.34;;;-145.32;100.00
14041;BME280;7095;51.388;6.196;2023-06-04T01:50:34;54147.28;;;-145.32;100.00
14041;BME280;7095;51.388;6.196;2023-06-04T01:53:05;54097.56;;;-145.32;100.00
14041;BME280;7095;51.388;6.196;2023-06-04T01:55:35;54153.25;;;-145.32;100.00
14041;BME280;7095;51.388;6.196;2023-06-04T01:58:05;54171.13;;;-145.32;100.00
14041;BME280;7095;51.388;6.196;2023-06-04T02:00:34;54171.13;;;-145.32;100.00
14041;BME280;7095;51.388;6.196;2023-06-04T02:03:03;54177.09;;;-145.32;100.00
14041;BME280;7095;51.388;6.196;2023-06-04T02:05:32;54179.09;;;-145.32;100.00
14041;BME280;7095;51.388;6.196;2023-06-04T02:08:04;54185.06;;;-145.32;100.00
14041;BME280;7095;51.388;6.196;2023-06-04T02:10:32;54161.19;;;-145.32;100.00
14041;BME280;7095;51.388;6.196;2023-06-04T02:13:03;54129.38;;;-145.32;100.00
14041;BME280;7095;51.388;6.196;2023-06-04T02:15:32;54141.31;;;-145.32;100.00
14041;BME280;7095;51.388;6.196;2023-06-04T02:18:12;54119.44;;;-145.32;100.00
14041;BME280;7095;51.388;6.196;2023-06-04T02:20:45;54073.69;;;-145.32;100.00
14041;BME280;7095;51.388;6.196;2023-06-04T02:23:15;54103.53;;;-145.32;100.00
14041;BME280;7095;51.388;6.196;2023-06-04T02:25:45;54095.56;;;-145.32;100.00
14041;BME280;7095;51.388;6.196;2023-06-04T02:28:15;54075.69;;;-145.32;100.00
14041;BME280;7095;51.388;6.196;2023-06-04T02:30:44;54115.47;;;-145.32;100.00
14041;BME280;7095;51.388;6.196;2023-06-04T02:33:14;54075.69;;;-145.32;100.00
14041;BME280;7095;51.388;6.196;2023-06-04T02:35:43;54075.69;;;-145.32;100.00
14041;BME280;7095;51.388;6.196;2023-06-04T02:38:12;54047.84;;;-145.32;100.00
14041;BME280;7095;51.388;6.196;2023-06-04T02:40:42;54101.53;;;-145.32;100.00
14041;BME280;7095;51.388;6.196;2023-06-04T02:43:14;54135.34;;;-145.32;100.00
14041;BME280;7095;51.388;6.196;2023-06-04T02:45:43;54143.28;;;-145.32;100.00
14041;BME280;7095;51.388;6.196;2023-06-04T02:48:12;54139.31;;;-145.32;100.00
14041;BME280;7095;51.388;6.196;2023-06-04T02:50:40;54151.25;;;-145.32;100.00
14041;BME280;7095;51.388;6.196;2023-06-04T02:53:09;54159.19;;;-145.32;100.00
14041;BME280;7095;51.388;6.196;2023-06-04T02:55:38;54145.28;;;-145.32;100.00
14041;BME280;7095;51.388;6.196;2023-06-04T02:58:07;54185.06;;;-145.32;100.00
14041;BME280;7095;51.388;6.196;2023-06-04T03:00:37;54191.03;;;-145.32;100.00
14041;BME280;7095;51.388;6.196;2023-06-04T03:03:07;54202.94;;;-145.32;100.00
14041;BME280;7095;51.388;6.196;2023-06-04T03:05:36;54244.72;;;-145.32;100.00
14041;BME280;7095;51.388;6.196;2023-06-04T03:08:06;54242.72;;;-145.32;100.00
14041;BME280;7095;51.388;6.196;2023-06-04T03:10:35;54302.38;;;-145.32;100.00
14041;BME280;7095;51.388;6.196;2023-06-04T03:13:04;54288.44;;;-145.32;100.00
14041;BME280;7095;51.388;6.196;2023-06-04T03:15:33;54310.34;;;-145.32;100.00
14041;BME280;7095;51.388;6.196;2023-06-04T03:18:08;54302.38;;;-145.32;100.00
14041;BME280;7095;51.388;6.196;2023-06-04T03:20:37;54324.25;;;-145.32;100.00
14041;BME280;7095;51.388;6.196;2023-06-04T03:23:06;54381.91;;;-145.32;100.00
14041;BME280;7095;51.388;6.196;2023-06-04T03:25:35;54360.03;;;-145.32;100.00
14041;BME280;7095;51.388;6.196;2023-06-04T03:28:04;54401.81;;;-145.32;100.00
14041;BME280;7095;51.388;6.196;2023-06-04T03:30:33;54433.63;;;-145.32;100.00
14041;BME280;7095;51.388;6.196;2023-06-04T03:33:04;54425.66;;;-145.32;100.00
14041;BME280;7095;51.388;6.196;2023-06-04T03:35:34;54485.31;;;-145.32;100.00
14041;BME280;7095;51.388;6.196;2023-06-04T03:38:02;54491.28;;;-145.32;100.00
14041;BME280;7095;51.388;6.196;2023-06-04T03:40:32;54451.53;;;-145.32;100.00
14041;BME280;7095;51.388;6.196;2023-06-04T03:43:03;54465.44;;;-145.32;100.00
14041;BME280;7095;51.388;6.196;2023-06-04T03:45:32;54523.09;;;-145.32;100.00
14041;BME280;7095;51.388;6.196;2023-06-04T03:48:01;54515.16;;;-145.32;100.00
14041;BME280;7095;51.388;6.196;2023-06-04T03:50:31;54513.16;;;-145.32;100.00
14041;BME280;7095;51.388;6.196;2023-06-04T03:53:01;54570.84;;;-145.32;100.00
14041;BME280;7095;51.388;6.196;2023-06-04T03:55:33;54544.97;;;-145.32;100.00
14041;BME280;7095;51.388;6.196;2023-06-04T03:58:06;54578.78;;;-145.32;100.00
14041;BME280;7095;51.388;6.196;2023-06-04T04:00:38;54620.56;;;-145.32;100.00
14041;BME280;7095;51.388;6.196;2023-06-04T04:03:07;54650.38;;;-145.32;100.00
14041;BME280;7095;51.388;6.196;2023-06-04T04:05:37;54640.44;;;-145.32;100.00
14041;BME280;7095;51.388;6.196;2023-06-04T04:08:07;54640.44;;;-145.32;100.00
14041;BME280;7095;51.388;6.196;2023-06-04T04:10:36;54704.09;;;-145.32;100.00
14041;BME280;7095;51.388;6.196;2023-06-04T04:13:05;54721.97;;;-145.32;100.00
14041;BME280;7095;51.388;6.196;2023-06-04T04:15:37;54743.84;;;-145.32;100.00
14041;BME280;7095;51.388;6.196;2023-06-04T04:18:06;54735.91;;;-145.32;100.00
14041;BME280;7095;51.388;6.196;2023-06-04T04:20:39;54801.53;;;-145.32;100.00
14041;BME280;7095;51.388;6.196;2023-06-04T04:23:11;54779.66;;;-145.32;100.00
14041;BME280;7095;51.388;6.196;2023-06-04T04:25:43;54827.38;;;-145.32;100.00
14041;BME280;7095;51.388;6.196;2023-06-04T04:28:12;54831.38;;;-145.32;100.00
14041;BME280;7095;51.388;6.196;2023-06-04T04:30:41;54855.22;;;-145.32;100.00
14041;BME280;7095;51.388;6.196;2023-06-04T04:33:10;54825.41;;;-145.32;100.00
14041;BME280;7095;51.388;6.196;2023-06-04T04:35:45;54819.44;;;-145.32;100.00
14041;BME280;7095;51.388;6.196;2023-06-04T04:38:19;54767.72;;;-145.32;100.00
14041;BME280;7095;51.388;6.196;2023-06-04T04:40:59;54723.97;;;-145.32;100.00
14041;BME280;7095;51.388;6.196;2023-06-04T04:43:29;54702.09;;;-145.32;100.00
14041;BME280;7095;51.388;6.196;2023-06-04T04:46:02;54656.34;;;-145.32;100.00
14041;BME280;7095;51.388;6.196;2023-06-04T04:48:31;54634.47;;;-145.32;100.00
14041;BME280;7095;51.388;6.196;2023-06-04T04:51:00;54596.69;;;-145.32;100.00
14041;BME280;7095;51.388;6.196;2023-06-04T04:53:31;54600.66;;;-145.32;100.00
14041;BME280;7095;51.388;6.196;2023-06-04T04:55:59;54572.81;;;-145.32;100.00
14041;BME280;7095;51.388;6.196;2023-06-04T04:58:29;54537.03;;;-145.32;100.00
14041;BME280;7095;51.388;6.196;2023-06-04T05:01:01;54501.22;;;-145.32;100.00
14041;BME280;7095;51.388;6.196;2023-06-04T05:03:30;54481.34;;;-145.32;100.00
14041;BME280;7095;51.388;6.196;2023-06-04T05:05:58;54477.38;;;-145.32;100.00
14041;BME280;7095;51.388;6.196;2023-06-04T05:08:27;54495.28;;;-145.32;100.00
14041;BME280;7095;51.388;6.196;2023-06-04T05:10:57;54459.47;;;-145.32;100.00
14041;BME280;7095;51.388;6.196;2023-06-04T05:13:25;54435.59;;;-145.32;100.00
14041;BME280;7095;51.388;6.196;2023-06-04T05:16:00;54385.91;;;-145.32;100.00
14041;BME280;7095;51.388;6.196;2023-06-04T05:18:37;54387.88;;;-145.32;100.00
14041;BME280;7095;51.388;6.196;2023-06-04T05:21:10;54346.13;;;-145.32;100.00
14041;BME280;7095;51.388;6.196;2023-06-04T05:23:45;54306.34;;;-145.32;100.00
14041;BME280;7095;51.388;6.196;2023-06-04T05:26:19;54276.53;;;-145.32;100.00
14041;BME280;7095;51.388;6.196;2023-06-04T05:28:52;54248.69;;;-145.32;100.00
14041;BME280;7095;51.388;6.196;2023-06-04T05:31:25;54187.03;;;-145.32;100.00
14041;BME280;7095;51.388;6.196;2023-06-04T05:33:57;54125.41;;;-145.32;100.00
14041;BME280;7095;51.388;6.196;2023-06-04T05:36:29;54085.63;;;-145.32;100.00
14041;BME280;7095;51.388;6.196;2023-06-04T05:39:02;54093.59;;;-145.32;100.00
14041;BME280;7095;51.388;6.196;2023-06-04T05:41:39;54031.94;;;-145.32;100.00
14041;BME280;7095;51.388;6.196;2023-06-04T05:44:08;54008.09;;;-145.32;100.00
14041;BME280;7095;51.388;6.196;2023-06-04T05:46:37;53966.34;;;-145.32;100.00
14041;BME280;7095;51.388;6.196;2023-06-04T05:49:06;53906.69;;;-145.32;100.00
14041;BME280;7095;51.388;6.196;2023-06-04T05:51:35;53908.66;;;-145.32;100.00
14041;BME280;7095;51.388;6.196;2023-06-04T05:54:04;53880.84;;;-145.32;100.00
14041;BME280;7095;51.388;6.196;2023-06-04T05:56:35;53900.72;;;-145.32;100.00
14041;BME280;7095;51.388;6.196;2023-06-04T05:59:05;53884.81;;;-145.32;100.00
14041;BME280;7095;51.388;6.196;2023-06-04T06:01:34;53845.03;;;-145.32;100.00
14041;BME280;7095;51.388;6.196;2023-06-04T06:04:03;53849.03;;;-145.32;100.00
14041;BME280;7095;51.388;6.196;2023-06-04T06:06:34;53801.31;;;-145.32;100.00
14041;BME280;7095;51.388;6.196;2023-06-04T06:09:03;53785.41;;;-145.32;100.00
14041;BME280;7095;51.388;6.196;2023-06-04T06:11:32;53781.41;;;-145.32;100.00
14041;BME280;7095;51.388;6.196;2023-06-04T06:14:01;53751.59;;;-145.32;100.00
14041;BME280;7095;51.388;6.196;2023-06-04T06:16:31;53729.72;;;-145.32;100.00
14041;BME280;7095;51.388;6.196;2023-06-04T06:19:01;53689.97;;;-145.32;100.00
14041;BME280;7095;51.388;6.196;2023-06-04T06:21:29;53644.22;;;-145.32;100.00
14041;BME280;7095;51.388;6.196;2023-06-04T06:23:58;53678.03;;;-145.32;100.00
14041;BME280;7095;51.388;6.196;2023-06-04T06:26:27;53646.22;;;-145.32;100.00
14041;BME280;7095;51.388;6.196;2023-06-04T06:28:57;53606.47;;;-145.32;100.00
14041;BME280;7095;51.388;6.196;2023-06-04T06:31:27;53622.38;;;-145.32;100.00
14041;BME280;7095;51.388;6.196;2023-06-04T06:33:57;53610.44;;;-145.32;100.00
14041;BME280;7095;51.388;6.196;2023-06-04T06:36:26;53580.63;;;-145.32;100.00
14041;BME280;7095;51.388;6.196;2023-06-04T06:38:56;53544.81;;;-145.32;100.00
14041;BME280;7095;51.388;6.196;2023-06-04T06:41:24;53570.69;;;-145.32;100.00
14041;BME280;7095;51.388;6.196;2023-06-04T06:43:54;53576.63;;;-145.32;100.00
14041;BME280;7095;51.388;6.196;2023-06-04T06:46:22;53511.03;;;-145.32;100.00
14041;BME280;7095;51.388;6.196;2023-06-04T06:48:51;53526.94;;;-145.32;100.00
14041;BME280;7095;51.388;6.196;2023-06-04T06:51:21;53491.16;;;-145.32;100.00
14041;BME280;7095;51.388;6.196;2023-06-04T06:53:49;53499.09;;;-145.32;100.00
14041;BME280;7095;51.388;6.196;2023-06-04T06:56:18;53483.19;;;-145.32;100.00
14041;BME280;7095;51.388;6.196;2023-06-04T06:58:47;53485.19;;;-145.32;100.00
14041;BME280;7095;51.388;6.196;2023-06-04T07:01:16;53449.41;;;-145.32;100.00
14041;BME280;7095;51.388;6.196;2023-06-04T07:03:44;53445.44;;;-145.32;100.00
14041;BME280;7095;51.388;6.196;2023-06-04T07:06:13;53431.50;;;-145.32;100.00
14041;BME280;7095;51.388;6.196;2023-06-04T07:08:43;53449.41;;;-145.32;100.00
14041;BME280;7095;51.388;6.196;2023-06-04T07:11:11;53447.41;;;-145.32;99.75
14041;BME280;7095;51.388;6.196;2023-06-04T07:13:40;53417.59;;;-145.32;98.74
14041;BME280;7095;51.388;6.196;2023-06-04T07:16:09;53437.47;;;-145.32;98.18
14041;BME280;7095;51.388;6.196;2023-06-04T07:18:37;53415.59;;;-145.32;95.94
14041;BME280;7095;51.388;6.196;2023-06-04T07:21:06;53405.66;;;-145.32;94.41
14041;BME280;7095;51.388;6.196;2023-06-04T07:23:35;53415.59;;;-145.32;93.56
14041;BME280;7095;51.388;6.196;2023-06-04T07:26:05;53415.59;;;-145.32;91.79
14041;BME280;7095;51.388;6.196;2023-06-04T07:28:34;53373.84;;;-145.32;87.76
14041;BME280;7095;51.388;6.196;2023-06-04T07:31:06;53401.69;;;-145.32;81.70
14041;BME280;7095;51.388;6.196;2023-06-04T07:33:35;53373.84;;;-145.32;80.19
14041;BME280;7095;51.388;6.196;2023-06-04T07:36:10;53405.66;;;-145.32;80.65
14041;BME280;7095;51.388;6.196;2023-06-04T07:38:39;53355.97;;;-145.32;78.18
14041;BME280;7095;51.388;6.196;2023-06-04T07:41:09;53342.06;;;-145.32;75.69
14041;BME280;7095;51.388;6.196;2023-06-04T07:43:38;53332.09;;;-145.32;75.37
14041;BME280;7095;51.388;6.196;2023-06-04T07:46:07;53326.16;;;-145.32;74.98
14041;BME280;7095;51.388;6.196;2023-06-04T07:48:36;53352.00;;;-145.32;73.19
14041;BME280;7095;51.388;6.196;2023-06-04T07:51:05;53355.97;;;-145.32;70.64
14041;BME280;7095;51.388;6.196;2023-06-04T07:53:34;53367.91;;;-145.32;68.77
14041;BME280;7095;51.388;6.196;2023-06-04T07:56:03;53326.16;;;-145.32;69.37
14041;BME280;7095;51.388;6.196;2023-06-04T07:58:33;53296.31;;;-145.32;66.52
14041;BME280;7095;51.388;6.196;2023-06-04T08:01:02;53340.06;;;-145.32;65.01
14041;BME280;7095;51.388;6.196;2023-06-04T08:03:31;53316.22;;;-145.32;65.22
14041;BME280;7095;51.388;6.196;2023-06-04T08:06:00;53316.22;;;-145.32;66.41
14041;BME280;7095;51.388;6.196;2023-06-04T08:08:30;53290.38;;;-145.32;64.49
14041;BME280;7095;51.388;6.196;2023-06-04T08:11:01;53312.22;;;-145.32;61.61
14041;BME280;7095;51.388;6.196;2023-06-04T08:13:29;53316.22;;;-145.32;58.20
14041;BME280;7095;51.388;6.196;2023-06-04T08:15:59;53282.41;;;-145.32;58.39
14041;BME280;7095;51.388;6.196;2023-06-04T08:18:48;53284.41;;;-145.32;60.48
14041;BME280;7095;51.388;6.196;2023-06-04T08:21:25;53300.31;;;-145.32;57.36
14041;BME280;7095;51.388;6.196;2023-06-04T08:24:01;53284.41;;;-145.32;55.60
14041;BME280;7095;51.388;6.196;2023-06-04T08:26:49;53300.31;;;-145.32;54.55
14041;BME280;7095;51.388;6.196;2023-06-04T08:29:29;53306.28;;;-145.32;53.60
14041;BME280;7095;51.388;6.196;2023-06-04T08:32:04;53304.28;;;-145.32;54.13
14041;BME280;7095;51.388;6.196;2023-06-04T08:34:34;53282.41;;;-145.32;52.05
14041;BME280;7095;51.388;6.196;2023-06-04T08:37:03;53274.47;;;-145.32;50.17
14041;BME280;7095;51.388;6.196;2023-06-04T08:39:32;53276.44;;;-145.32;48.77
14041;BME280;7095;51.388;6.196;2023-06-04T08:42:04;53266.50;;;-145.32;47.83
14041;BME280;7095;51.388;6.196;2023-06-04T08:44:34;53236.69;;;-145.32;47.19
14041;BME280;7095;51.388;6.196;2023-06-04T08:47:05;53256.56;;;-145.32;47.33
14041;BME280;7095;51.388;6.196;2023-06-04T08:49:36;53262.53;;;-145.32;46.85
14041;BME280;7095;51.388;6.196;2023-06-04T08:52:04;53216.81;;;-145.32;46.36
14041;BME280;7095;51.388;6.196;2023-06-04T08:54:34;53232.72;;;-145.32;45.57
14041;BME280;7095;51.388;6.196;2023-06-04T08:57:03;53222.78;;;-145.32;45.06
14041;BME280;7095;51.388;6.196;2023-06-04T08:59:32;53256.56;;;-145.32;44.51
14041;BME280;7095;51.388;6.196;2023-06-04T09:02:01;53214.81;;;-145.32;43.57
14041;BME280;7095;51.388;6.196;2023-06-04T09:04:33;53220.78;;;-145.32;43.40
14041;BME280;7095;51.388;6.196;2023-06-04T09:07:03;53187.00;;;-145.32;43.12
14041;BME280;7095;51.388;6.196;2023-06-04T09:09:36;53200.91;;;-145.32;43.80
14041;BME280;7095;51.388;6.196;2023-06-04T09:12:08;53228.75;;;-145.32;42.07
14041;BME280;7095;51.388;6.196;2023-06-04T09:14:38;53244.63;;;-145.32;42.14
14041;BME280;7095;51.388;6.196;2023-06-04T09:17:07;53192.94;;;-145.32;41.34
14041;BME280;7095;51.388;6.196;2023-06-04T09:19:37;53208.84;;;-145.32;39.70
14041;BME280;7095;51.388;6.196;2023-06-04T09:22:06;53212.84;;;-145.32;39.35
14041;BME280;7095;51.388;6.196;2023-06-04T09:24:40;53188.97;;;-145.32;39.54
14041;BME280;7095;51.388;6.196;2023-06-04T09:27:10;53220.78;;;-145.32;39.26
14041;BME280;7095;51.388;6.196;2023-06-04T09:29:40;53204.88;;;-145.32;38.11
14041;BME280;7095;51.388;6.196;2023-06-04T09:32:09;53163.13;;;-145.32;37.65
14041;BME280;7095;51.388;6.196;2023-06-04T09:34:39;53214.81;;;-145.32;37.73
14041;BME280;7095;51.388;6.196;2023-06-04T09:37:14;53194.94;;;-145.32;35.94
14041;BME280;7095;51.388;6.196;2023-06-04T09:39:44;53173.06;;;-145.32;36.67
14041;BME280;7095;51.388;6.196;2023-06-04T09:42:20;53163.13;;;-145.32;37.07
14041;BME280;7095;51.388;6.196;2023-06-04T09:44:51;53159.16;;;-145.32;36.71
14041;BME280;7095;51.388;6.196;2023-06-04T09:47:25;53194.94;;;-145.32;36.32
14041;BME280;7095;51.388;6.196;2023-06-04T09:50:00;53173.06;;;-145.32;36.58
14041;BME280;7095;51.388;6.196;2023-06-04T09:52:33;53153.19;;;-145.32;36.35
14041;BME280;7095;51.388;6.196;2023-06-04T09:55:02;53165.13;;;-145.32;35.44
14041;BME280;7095;51.388;6.196;2023-06-04T09:57:31;53173.06;;;-145.32;35.38
14041;BME280;7095;51.388;6.196;2023-06-04T10:00:03;53179.03;;;-145.32;35.80
14041;BME280;7095;51.388;6.196;2023-06-04T10:02:37;53169.09;;;-145.32;36.45
14041;BME280;7095;51.388;6.196;2023-06-04T10:05:10;53141.28;;;-145.32;35.53
14041;BME280;7095;51.388;6.196;2023-06-04T10:07:42;53177.06;;;-145.32;35.00
14041;BME280;7095;51.388;6.196;2023-06-04T10:10:15;53159.16;;;-145.32;34.21
14041;BME280;7095;51.388;6.196;2023-06-04T10:12:46;53167.13;;;-145.32;34.39
14041;BME280;7095;51.388;6.196;2023-06-04T10:15:19;53153.19;;;-145.32;34.51
14041;BME280;7095;51.388;6.196;2023-06-04T10:17:48;53163.13;;;-145.32;35.12
14041;BME280;7095;51.388;6.196;2023-06-04T10:20:19;53151.22;;;-145.32;35.24
14041;BME280;7095;51.388;6.196;2023-06-04T10:22:49;53119.41;;;-145.32;35.84
14041;BME280;7095;51.388;6.196;2023-06-04T10:25:19;53157.19;;;-145.32;35.59
14041;BME280;7095;51.388;6.196;2023-06-04T10:27:50;53179.03;;;-145.32;35.22
14041;BME280;7095;51.388;6.196;2023-06-04T10:30:19;53137.28;;;-145.32;35.21
14041;BME280;7095;51.388;6.196;2023-06-04T10:32:48;53141.28;;;-145.32;34.58
14041;BME280;7095;51.388;6.196;2023-06-04T10:35:16;53129.34;;;-145.32;33.94
14041;BME280;7095;51.388;6.196;2023-06-04T10:37:46;53171.09;;;-145.32;33.29
14041;BME280;7095;51.388;6.196;2023-06-04T10:40:18;53157.19;;;-145.32;33.34
14041;BME280;7095;51.388;6.196;2023-06-04T10:42:46;53135.31;;;-145.32;34.03
14041;BME280;7095;51.388;6.196;2023-06-04T10:45:15;53133.31;;;-145.32;33.87
14041;BME280;7095;51.388;6.196;2023-06-04T10:47:43;53133.31;;;-145.32;34.01
14041;BME280;7095;51.388;6.196;2023-06-04T10:50:13;53139.28;;;-145.32;33.68
14041;BME280;7095;51.388;6.196;2023-06-04T10:52:52;53109.47;;;-145.32;33.42
14041;BME280;7095;51.388;6.196;2023-06-04T10:55:21;53161.16;;;-145.32;33.13
14041;BME280;7095;51.388;6.196;2023-06-04T10:57:53;53135.31;;;-145.32;32.03
14041;BME280;7095;51.388;6.196;2023-06-04T11:00:34;53153.19;;;-145.32;30.11
14041;BME280;7095;51.388;6.196;2023-06-04T11:03:04;53109.47;;;-145.32;31.35
14041;BME280;7095;51.388;6.196;2023-06-04T11:05:36;53153.19;;;-145.32;31.87
14041;BME280;7095;51.388;6.196;2023-06-04T11:08:12;53113.44;;;-145.32;31.41
14041;BME280;7095;51.388;6.196;2023-06-04T11:10:43;53169.09;;;-145.32;31.89
14041;BME280;7095;51.388;6.196;2023-06-04T11:13:12;53103.50;;;-145.32;32.08
14041;BME280;7095;51.388;6.196;2023-06-04T11:15:41;53109.47;;;-145.32;31.95
14041;BME280;7095;51.388;6.196;2023-06-04T11:18:14;53099.53;;;-145.32;31.36
14041;BME280;7095;51.388;6.196;2023-06-04T11:20:44;53127.34;;;-145.32;31.43
14041;BME280;7095;51.388;6.196;2023-06-04T11:23:15;53121.41;;;-145.32;31.88
14041;BME280;7095;51.388;6.196;2023-06-04T11:25:45;53117.41;;;-145.32;31.31
14041;BME280;7095;51.388;6.196;2023-06-04T11:28:16;53109.47;;;-145.32;31.04
14041;BME280;7095;51.388;6.196;2023-06-04T11:30:56;53091.56;;;-145.32;30.08
14041;BME280;7095;51.388;6.196;2023-06-04T11:33:25;53097.53;;;-145.32;31.00
14041;BME280;7095;51.388;6.196;2023-06-04T11:35:54;53095.56;;;-145.32;30.28
14041;BME280;7095;51.388;6.196;2023-06-04T11:38:24;53083.63;;;-145.32;29.40
14041;BME280;7095;51.388;6.196;2023-06-04T11:40:57;53085.63;;;-145.32;29.03
14041;BME280;7095;51.388;6.196;2023-06-04T11:43:28;53079.66;;;-145.32;29.46
14041;BME280;7095;51.388;6.196;2023-06-04T11:45:57;53087.59;;;-145.32;29.22
14041;BME280;7095;51.388;6.196;2023-06-04T11:48:26;53065.72;;;-145.32;28.33
14041;BME280;7095;51.388;6.196;2023-06-04T11:50:56;53089.59;;;-145.32;27.36
14041;BME280;7095;51.388;6.196;2023-06-04T11:53:28;53081.63;;;-145.32;28.45
14041;BME280;7095;51.388;6.196;2023-06-04T11:55:57;53089.59;;;-145.32;27.39
14041;BME280;7095;51.388;6.196;2023-06-04T11:58:26;53059.78;;;-145.32;27.62
14041;BME280;7095;51.388;6.196;2023-06-04T12:00:55;53073.69;;;-145.32;26.90
14041;BME280;7095;51.388;6.196;2023-06-04T12:03:34;53035.91;;;-145.32;25.84
14041;BME280;7095;51.388;6.196;2023-06-04T12:06:15;53085.63;;;-145.32;26.35
14041;BME280;7095;51.388;6.196;2023-06-04T12:08:46;53057.78;;;-145.32;26.14
14041;BME280;7095;51.388;6.196;2023-06-04T12:11:26;53041.88;;;-145.32;26.50
14041;BME280;7095;51.388;6.196;2023-06-04T12:13:56;53022.00;;;-145.32;25.94
14041;BME280;7095;51.388;6.196;2023-06-04T12:16:25;53071.69;;;-145.32;26.10
14041;BME280;7095;51.388;6.196;2023-06-04T12:19:06;53049.84;;;-145.32;25.79
14041;BME280;7095;51.388;6.196;2023-06-04T12:21:35;53085.63;;;-145.32;25.29
14041;BME280;7095;51.388;6.196;2023-06-04T12:24:11;53063.75;;;-145.32;25.66
14041;BME280;7095;51.388;6.196;2023-06-04T12:26:42;53049.84;;;-145.32;24.92
14041;BME280;7095;51.388;6.196;2023-06-04T12:29:17;53037.91;;;-145.32;25.25
14041;BME280;7095;51.388;6.196;2023-06-04T12:31:47;53045.84;;;-145.32;25.54
14041;BME280;7095;51.388;6.196;2023-06-04T12:34:15;53020.00;;;-145.32;25.74
14041;BME280;7095;51.388;6.196;2023-06-04T12:36:45;53047.84;;;-145.32;24.90
14041;BME280;7095;51.388;6.196;2023-06-04T12:39:16;53039.91;;;-145.32;24.26
14041;BME280;7095;51.388;6.196;2023-06-04T12:41:45;53037.91;;;-145.32;25.01
14041;BME280;7095;51.388;6.196;2023-06-04T12:44:15;53049.84;;;-145.32;24.16
14041;BME280;7095;51.388;6.196;2023-06-04T12:46:44;53061.75;;;-145.32;24.56
14041;BME280;7095;51.388;6.196;2023-06-04T12:49:13;53039.91;;;-145.32;24.21
14041;BME280;7095;51.388;6.196;2023-06-04T12:51:42;53065.72;;;-145.32;24.12
14041;BME280;7095;51.388;6.196;2023-06-04T12:54:11;53045.84;;;-145.32;24.65
14041;BME280;7095;51.388;6.196;2023-06-04T12:56:43;53045.84;;;-145.32;24.63
14041;BME280;7095;51.388;6.196;2023-06-04T12:59:12;53043.88;;;-145.32;24.69
14041;BME280;7095;51.388;6.196;2023-06-04T13:01:42;53055.78;;;-145.32;24.00